createdAt,value
2022-11-20T00:01:48.752Z,69.84
2022-11-20T00:04:15.117Z,69.42
2022-11-20T00:06:41.479Z,69.56
2022-11-20T00:09:07.814Z,68.05
2022-11-20T00:11:34.175Z,66.55
2022-11-20T00:14:00.516Z,65.32
2022-11-20T00:16:26.842Z,65.11
2022-11-20T00:18:53.226Z,64.78
2022-11-20T00:21:19.552Z,64.21
2022-11-20T00:23:45.937Z,64.00
2022-11-20T00:26:12.343Z,64.67
2022-11-20T00:28:38.675Z,64.61
2022-11-20T00:31:05.094Z,64.82
2022-11-20T00:33:31.435Z,65.03
2022-11-20T00:35:57.799Z,65.55
2022-11-20T00:38:24.174Z,65.16
2022-11-20T00:40:54.693Z,65.02
2022-11-20T00:43:16.890Z,65.28
2022-11-20T00:45:43.230Z,64.53
2022-11-20T00:48:09.612Z,62.65
2022-11-20T00:50:35.963Z,61.40
2022-11-20T00:53:02.298Z,61.10
2022-11-20T00:55:28.695Z,61.63
2022-11-20T00:57:55.058Z,61.71
2022-11-20T01:00:21.374Z,58.69
2022-11-20T01:02:47.719Z,55.71
2022-11-20T01:05:14.113Z,54.72
2022-11-20T01:07:40.582Z,55.98
2022-11-20T01:10:06.843Z,57.81
2022-11-20T01:12:33.187Z,58.07
2022-11-20T01:14:59.507Z,56.69
2022-11-20T01:17:25.916Z,55.37
2022-11-20T01:19:52.267Z,55.02
2022-11-20T01:22:18.664Z,51.95
2022-11-20T01:24:45.015Z,50.91
2022-11-20T01:27:11.419Z,49.58
2022-11-20T01:29:37.767Z,49.00
2022-11-20T01:32:04.136Z,47.72
2022-11-20T01:34:30.465Z,48.00
2022-11-20T01:36:56.809Z,49.77
2022-11-20T01:39:23.502Z,49.72
2022-11-20T01:41:49.543Z,49.14
2022-11-20T01:44:15.941Z,49.61
2022-11-20T01:46:42.283Z,50.77
2022-11-20T01:49:08.806Z,52.35
2022-11-20T01:51:35.191Z,53.90
2022-11-20T01:54:01.500Z,54.53
2022-11-20T01:56:27.893Z,55.07
2022-11-20T01:58:54.193Z,51.10
2022-11-20T02:01:20.632Z,47.43
2022-11-20T02:03:46.980Z,46.95
2022-11-20T02:06:13.347Z,46.26
2022-11-20T02:08:39.669Z,47.22
2022-11-20T02:11:06.062Z,45.70
2022-11-20T02:13:32.414Z,45.55
2022-11-20T02:15:58.745Z,45.96
2022-11-20T02:18:25.064Z,46.10
2022-11-20T02:20:51.463Z,45.55
2022-11-20T02:23:17.782Z,45.82
2022-11-20T02:25:44.154Z,45.73
2022-11-20T02:28:10.520Z,46.43
2022-11-20T02:30:36.904Z,46.31
2022-11-20T02:33:03.259Z,45.34
2022-11-20T02:35:29.602Z,44.81
2022-11-20T02:37:55.962Z,44.68
2022-11-20T02:40:22.383Z,44.58
2022-11-20T02:42:48.724Z,44.89
2022-11-20T02:45:15.107Z,45.58
2022-11-20T02:47:41.466Z,45.24
2022-11-20T02:50:07.857Z,45.27
2022-11-20T02:52:34.185Z,45.06
2022-11-20T02:55:00.615Z,45.58
2022-11-20T02:57:26.982Z,45.71
2022-11-20T02:59:53.354Z,45.83
2022-11-20T03:02:19.739Z,45.75
2022-11-20T03:04:46.111Z,45.71
2022-11-20T03:07:12.587Z,46.08
2022-11-20T03:09:38.905Z,46.49
2022-11-20T03:12:05.236Z,46.81
2022-11-20T03:14:31.585Z,47.08
2022-11-20T03:16:57.922Z,47.57
2022-11-20T03:19:24.319Z,47.39
2022-11-20T03:21:50.635Z,47.22
2022-11-20T03:24:17.002Z,46.86
2022-11-20T03:26:43.376Z,47.13
2022-11-20T03:29:09.732Z,47.20
2022-11-20T03:31:36.045Z,47.67
2022-11-20T03:34:02.393Z,47.75
2022-11-20T03:36:28.760Z,47.38
2022-11-20T03:38:55.100Z,46.90
2022-11-20T03:41:21.475Z,47.10
2022-11-20T03:43:47.839Z,47.28
2022-11-20T03:46:14.198Z,47.29
2022-11-20T03:48:40.554Z,47.28
2022-11-20T03:51:06.920Z,46.85
2022-11-20T03:53:33.294Z,46.74
2022-11-20T03:55:59.612Z,46.69
2022-11-20T03:58:25.956Z,46.61
2022-11-20T04:00:52.287Z,46.76
2022-11-20T04:03:18.636Z,46.59
2022-11-20T04:05:44.966Z,46.54
2022-11-20T04:08:11.353Z,46.71
2022-11-20T04:10:37.675Z,46.79
2022-11-20T04:13:04.084Z,47.19
2022-11-20T04:15:34.302Z,47.50
2022-11-20T04:17:56.796Z,47.38
2022-11-20T04:20:23.227Z,47.42
2022-11-20T04:22:49.602Z,47.23
2022-11-20T04:25:15.918Z,47.58
2022-11-20T04:27:42.331Z,46.88
2022-11-20T04:30:08.698Z,47.39
2022-11-20T04:32:35.071Z,46.85
2022-11-20T04:35:01.426Z,46.78
2022-11-20T04:37:27.812Z,46.99
2022-11-20T04:39:54.131Z,47.12
2022-11-20T04:42:20.476Z,47.56
2022-11-20T04:44:46.799Z,47.40
2022-11-20T04:47:13.186Z,47.51
2022-11-20T04:49:39.590Z,47.69
2022-11-20T04:52:05.937Z,47.90
2022-11-20T04:54:32.312Z,48.23
2022-11-20T04:56:58.628Z,48.54
2022-11-20T04:59:25.018Z,48.72
2022-11-20T05:01:51.481Z,48.76
2022-11-20T05:04:17.778Z,48.15
2022-11-20T05:06:44.104Z,48.42
2022-11-20T05:09:10.487Z,48.64
2022-11-20T05:11:36.803Z,48.55
2022-11-20T05:14:03.147Z,49.11
2022-11-20T05:16:29.509Z,49.52
2022-11-20T05:18:55.891Z,49.49
2022-11-20T05:21:22.200Z,49.49
2022-11-20T05:23:48.579Z,49.84
2022-11-20T05:26:14.903Z,50.60
2022-11-20T05:28:41.252Z,51.44
2022-11-20T05:31:07.614Z,53.31
2022-11-20T05:33:33.972Z,55.41
2022-11-20T05:36:00.401Z,55.42
2022-11-20T05:38:26.776Z,56.18
2022-11-20T05:40:53.093Z,57.43
2022-11-20T05:43:19.569Z,57.82
2022-11-20T05:45:45.894Z,57.93
2022-11-20T05:48:12.246Z,57.86
2022-11-20T05:50:38.577Z,57.70
2022-11-20T05:53:04.967Z,57.75
2022-11-20T05:55:31.316Z,57.50
2022-11-20T05:57:57.666Z,57.02
2022-11-20T06:00:24.054Z,56.66
2022-11-20T06:02:50.534Z,56.37
2022-11-20T06:05:16.809Z,56.33
2022-11-20T06:07:43.284Z,56.31
2022-11-20T06:10:09.528Z,55.79
2022-11-20T06:12:35.921Z,55.09
2022-11-20T06:15:02.254Z,54.97
2022-11-20T06:17:28.664Z,55.35
2022-11-20T06:19:55.016Z,55.19
2022-11-20T06:22:21.406Z,55.53
2022-11-20T06:24:47.764Z,55.12
2022-11-20T06:27:14.139Z,54.80
2022-11-20T06:29:40.454Z,54.54
2022-11-20T06:32:06.841Z,54.40
2022-11-20T06:34:33.218Z,54.33
2022-11-20T06:36:59.588Z,54.33
2022-11-20T06:39:25.908Z,54.54
2022-11-20T06:41:55.812Z,55.01
2022-11-20T06:44:18.622Z,55.01
2022-11-20T06:46:45.025Z,54.50
2022-11-20T06:49:11.353Z,54.04
2022-11-20T06:51:37.706Z,53.21
2022-11-20T06:54:04.055Z,53.31
2022-11-20T06:56:30.407Z,53.67
2022-11-20T06:58:56.730Z,53.49
2022-11-20T07:01:23.107Z,53.28
2022-11-20T07:03:54.026Z,53.45
2022-11-20T07:06:15.815Z,53.50
2022-11-20T07:08:42.176Z,53.33
2022-11-20T07:11:08.597Z,53.05
2022-11-20T07:13:34.978Z,53.51
2022-11-20T07:16:01.367Z,53.54
2022-11-20T07:18:27.771Z,53.27
2022-11-20T07:20:54.132Z,53.22
2022-11-20T07:23:20.484Z,52.67
2022-11-20T07:25:46.863Z,52.41
2022-11-20T07:28:13.187Z,52.45
2022-11-20T07:30:39.553Z,52.43
2022-11-20T07:33:05.899Z,51.95
2022-11-20T07:35:32.281Z,51.91
2022-11-20T07:37:58.613Z,51.94
2022-11-20T07:40:24.991Z,51.98
2022-11-20T07:42:51.317Z,52.06
2022-11-20T07:45:17.699Z,51.83
2022-11-20T07:47:44.091Z,52.19
2022-11-20T07:50:10.422Z,51.41
2022-11-20T07:52:36.747Z,51.19
2022-11-20T07:55:03.166Z,50.83
2022-11-20T07:57:29.460Z,51.08
2022-11-20T07:59:55.803Z,51.52
2022-11-20T08:02:22.139Z,52.13
2022-11-20T08:04:48.601Z,52.61
2022-11-20T08:07:15.041Z,52.58
2022-11-20T08:09:41.359Z,52.53
2022-11-20T08:12:07.720Z,52.53
2022-11-20T08:14:34.082Z,52.71
2022-11-20T08:17:00.422Z,53.03
2022-11-20T08:19:26.811Z,52.97
2022-11-20T08:21:53.176Z,52.56
2022-11-20T08:24:19.565Z,52.42
2022-11-20T08:26:45.893Z,51.73
2022-11-20T08:29:12.280Z,50.87
2022-11-20T08:31:38.667Z,50.40
2022-11-20T08:34:08.981Z,50.39
2022-11-20T08:36:31.320Z,50.15
2022-11-20T08:38:57.738Z,50.26
2022-11-20T08:41:24.052Z,51.37
2022-11-20T08:43:50.396Z,53.16
2022-11-20T08:46:16.751Z,54.76
2022-11-20T08:48:43.095Z,55.69
2022-11-20T08:51:09.416Z,56.30
2022-11-20T08:53:36.742Z,56.73
2022-11-20T08:56:03.067Z,56.59
2022-11-20T08:58:31.014Z,57.74
2022-11-20T09:00:55.803Z,58.96
2022-11-20T09:03:22.136Z,59.63
2022-11-20T09:05:48.425Z,58.95
2022-11-20T09:08:14.777Z,58.67
2022-11-20T09:10:41.098Z,58.53
2022-11-20T09:13:07.487Z,58.35
2022-11-20T09:15:33.906Z,58.68
2022-11-20T09:18:00.240Z,58.98
2022-11-20T09:20:26.558Z,59.10
2022-11-20T09:22:52.985Z,60.31
2022-11-20T09:25:19.351Z,60.93
2022-11-20T09:27:45.684Z,61.95
2022-11-20T09:30:12.082Z,60.45
2022-11-20T09:32:38.427Z,61.67
2022-11-20T09:35:04.805Z,61.36
2022-11-20T09:37:31.113Z,62.11
2022-11-20T09:39:57.432Z,61.77
2022-11-20T09:42:23.813Z,61.99
2022-11-20T09:44:50.316Z,63.15
2022-11-20T09:47:16.646Z,65.33
2022-11-20T09:49:42.971Z,63.76
2022-11-20T09:52:09.372Z,63.28
2022-11-20T09:54:35.723Z,63.23
2022-11-20T09:57:02.072Z,64.64
2022-11-20T09:59:28.443Z,65.50
2022-11-20T10:01:54.780Z,66.32
2022-11-20T10:04:21.279Z,66.72
2022-11-20T10:06:59.394Z,67.14
2022-11-20T10:09:14.012Z,67.88
2022-11-20T10:11:40.360Z,68.09
2022-11-20T10:14:06.725Z,69.39
2022-11-20T10:16:37.987Z,69.60
2022-11-20T10:18:59.447Z,70.12
2022-11-20T10:21:25.870Z,69.97
2022-11-20T10:23:52.224Z,70.03
2022-11-20T10:26:18.560Z,69.87
2022-11-20T10:28:52.789Z,70.42
2022-11-20T10:31:11.224Z,70.12
2022-11-20T10:33:50.403Z,69.90
2022-11-20T10:36:04.008Z,69.50
2022-11-20T10:38:30.354Z,69.63
2022-11-20T10:40:56.749Z,69.44
2022-11-20T10:43:23.088Z,70.10
2022-11-20T10:45:49.510Z,70.49
2022-11-20T10:48:15.826Z,70.50
2022-11-20T10:50:42.182Z,70.66
2022-11-20T10:53:08.595Z,70.68
2022-11-20T10:55:34.939Z,70.77
2022-11-20T10:58:01.313Z,71.43
2022-11-20T11:00:27.688Z,71.63
2022-11-20T11:02:54.060Z,72.23
2022-11-20T11:05:20.400Z,73.08
2022-11-20T11:07:46.723Z,73.88
2022-11-20T11:10:13.090Z,74.88
2022-11-20T11:12:39.411Z,76.72
2022-11-20T11:15:05.795Z,76.99
2022-11-20T11:17:32.164Z,90.49
2022-11-20T11:19:58.544Z,92.84
2022-11-20T11:22:24.893Z,93.46
2022-11-20T11:24:51.298Z,93.17
2022-11-20T11:27:18.037Z,91.87
2022-11-20T11:29:44.050Z,91.87
2022-11-20T11:32:10.416Z,90.91
2022-11-20T11:34:36.773Z,90.24
2022-11-20T11:37:03.095Z,87.38
2022-11-20T11:39:29.435Z,87.29
2022-11-20T11:41:55.758Z,87.80
2022-11-20T11:44:22.101Z,86.63
2022-11-20T11:46:48.437Z,87.77
2022-11-20T11:49:14.787Z,84.94
2022-11-20T11:51:41.122Z,86.45
2022-11-20T11:54:07.536Z,84.74
2022-11-20T11:56:33.847Z,88.10
2022-11-20T11:59:00.253Z,89.45
2022-11-20T12:01:26.567Z,90.32
2022-11-20T12:03:52.949Z,96.58
2022-11-20T12:06:19.309Z,100.00
2022-11-20T12:08:45.650Z,100.00
2022-11-20T12:11:12.041Z,99.77
2022-11-20T12:13:38.416Z,98.86
2022-11-20T12:16:04.778Z,98.66
2022-11-20T12:18:31.112Z,97.92
2022-11-20T12:20:57.473Z,98.25
2022-11-20T12:23:23.844Z,98.44
2022-11-20T12:25:50.223Z,97.44
2022-11-20T12:28:16.573Z,96.61
2022-11-20T12:30:42.936Z,96.23
2022-11-20T12:33:09.332Z,97.13
2022-11-20T12:35:35.666Z,97.41
2022-11-20T12:38:02.036Z,98.44
2022-11-20T12:40:28.362Z,96.22
2022-11-20T12:42:54.752Z,96.77
2022-11-20T12:45:21.110Z,97.95
2022-11-20T12:47:47.523Z,98.30
2022-11-20T12:50:13.838Z,98.72
2022-11-20T12:52:40.181Z,98.92
2022-11-20T12:55:06.547Z,98.87
2022-11-20T12:57:32.893Z,99.25
2022-11-20T12:59:59.262Z,98.88
2022-11-20T13:02:25.601Z,98.23
2022-11-20T13:04:51.928Z,97.37
2022-11-20T13:07:18.377Z,98.33
2022-11-20T13:09:44.647Z,97.97
2022-11-20T13:12:11.031Z,97.46
2022-11-20T13:14:37.399Z,96.92
2022-11-20T13:17:06.237Z,96.09
2022-11-20T13:19:30.140Z,93.71
2022-11-20T13:21:56.515Z,94.28
2022-11-20T13:24:22.995Z,96.18
2022-11-20T13:26:49.171Z,95.53
2022-11-20T13:29:15.491Z,95.79
2022-11-20T13:31:41.855Z,91.92
2022-11-20T13:34:08.181Z,94.52
2022-11-20T13:36:34.603Z,95.15
2022-11-20T13:39:00.929Z,95.19
2022-11-20T13:41:27.310Z,94.79
2022-11-20T13:43:53.631Z,94.99
2022-11-20T13:46:20.033Z,95.72
2022-11-20T13:48:46.344Z,95.44
2022-11-20T13:51:12.690Z,94.89
2022-11-20T13:53:39.053Z,95.37
2022-11-20T13:56:05.431Z,95.55
2022-11-20T13:58:31.805Z,95.33
2022-11-20T14:00:58.250Z,93.68
2022-11-20T14:03:44.206Z,94.63
2022-11-20T14:05:50.950Z,94.14
2022-11-20T14:08:17.323Z,94.90
2022-11-20T14:10:43.678Z,95.55
2022-11-20T14:13:10.006Z,95.21
2022-11-20T14:15:40.449Z,95.24
2022-11-20T14:18:02.804Z,94.99
2022-11-20T14:20:29.255Z,95.12
2022-11-20T14:22:55.584Z,95.24
2022-11-20T14:25:21.968Z,94.76
2022-11-20T14:27:48.285Z,94.79
2022-11-20T14:30:14.778Z,94.52
2022-11-20T14:32:41.125Z,94.63
2022-11-20T14:35:07.505Z,94.54
2022-11-20T14:37:33.890Z,94.64
2022-11-20T14:40:00.270Z,94.84
2022-11-20T14:42:26.592Z,94.85
2022-11-20T14:44:52.938Z,95.31
2022-11-20T14:47:19.267Z,94.94
2022-11-20T14:49:45.652Z,94.29
2022-11-20T14:52:12.013Z,94.08
2022-11-20T14:54:38.351Z,94.42
2022-11-20T14:57:04.739Z,93.86
2022-11-20T14:59:31.073Z,93.87
2022-11-20T15:01:57.481Z,94.02
2022-11-20T15:04:23.977Z,93.65
2022-11-20T15:06:50.155Z,94.66
2022-11-20T15:09:16.497Z,94.35
2022-11-20T15:11:42.858Z,94.54
2022-11-20T15:14:09.242Z,94.40
2022-11-20T15:16:35.558Z,94.36
2022-11-20T15:19:01.942Z,94.74
2022-11-20T15:21:28.285Z,94.73
2022-11-20T15:23:54.601Z,94.37
2022-11-20T15:26:21.023Z,93.88
2022-11-20T15:28:47.389Z,92.93
2022-11-20T15:31:13.770Z,92.99
2022-11-20T15:33:40.117Z,92.46
2022-11-20T15:36:06.506Z,91.63
2022-11-20T15:38:32.864Z,90.86
2022-11-20T15:40:59.309Z,88.24
2022-11-20T15:43:25.670Z,89.61
2022-11-20T15:45:52.013Z,90.12
2022-11-20T15:48:18.381Z,89.13
2022-11-20T15:50:44.770Z,87.22
2022-11-20T15:53:11.097Z,86.52
2022-11-20T15:55:37.449Z,85.62
2022-11-20T15:58:03.864Z,88.34
2022-11-20T16:00:30.203Z,89.76
2022-11-20T16:02:56.576Z,89.94
2022-11-20T16:05:22.974Z,90.57
2022-11-20T16:07:49.392Z,90.95
2022-11-20T16:10:15.735Z,89.60
2022-11-20T16:12:42.103Z,89.69
2022-11-20T16:15:13.465Z,89.38
2022-11-20T16:17:34.812Z,89.64
2022-11-20T16:20:01.199Z,89.32
2022-11-20T16:22:27.558Z,89.79
2022-11-20T16:24:53.940Z,89.68
2022-11-20T16:27:20.265Z,89.15
2022-11-20T16:29:46.706Z,89.00
2022-11-20T16:32:13.080Z,88.88
2022-11-20T16:34:39.398Z,88.54
2022-11-20T16:37:05.806Z,88.04
2022-11-20T16:39:32.185Z,87.20
2022-11-20T16:41:58.506Z,87.72
2022-11-20T16:44:25.353Z,87.80
2022-11-20T16:46:51.398Z,87.32
2022-11-20T16:49:17.579Z,87.15
2022-11-20T16:51:43.952Z,86.90
2022-11-20T16:54:10.344Z,87.08
2022-11-20T16:56:36.702Z,87.36
2022-11-20T16:59:03.073Z,86.87
2022-11-20T17:01:29.534Z,86.91
2022-11-20T17:03:55.835Z,86.50
2022-11-20T17:06:22.219Z,86.12
2022-11-20T17:08:48.625Z,85.83
2022-11-20T17:11:15.026Z,86.02
2022-11-20T17:13:41.416Z,86.04
2022-11-20T17:16:07.726Z,85.81
2022-11-20T17:18:34.124Z,86.12
2022-11-20T17:21:00.432Z,85.50
2022-11-20T17:23:26.851Z,85.85
2022-11-20T17:25:53.212Z,85.55
2022-11-20T17:28:19.562Z,85.53
2022-11-20T17:30:45.924Z,85.60
2022-11-20T17:33:12.317Z,86.00
2022-11-20T17:35:38.739Z,86.05
2022-11-20T17:38:05.088Z,85.64
2022-11-20T17:40:31.472Z,85.78
2022-11-20T17:42:57.811Z,85.20
2022-11-20T17:45:24.179Z,85.83
2022-11-20T17:47:50.514Z,85.44
2022-11-20T17:50:16.874Z,85.34
2022-11-20T17:52:43.261Z,85.97
2022-11-20T17:55:09.635Z,86.09
2022-11-20T17:57:36.008Z,85.72
2022-11-20T18:00:02.325Z,85.71
2022-11-20T18:02:29.021Z,84.59
2022-11-20T18:04:55.377Z,84.39
2022-11-20T18:07:21.796Z,84.82
2022-11-20T18:09:48.129Z,84.34
2022-11-20T18:12:14.471Z,84.87
2022-11-20T18:14:40.836Z,84.63
2022-11-20T18:17:07.243Z,84.98
2022-11-20T18:19:34.805Z,85.10
2022-11-20T18:21:59.960Z,84.57
2022-11-20T18:24:26.473Z,84.83
2022-11-20T18:26:52.743Z,84.52
2022-11-20T18:29:19.054Z,83.78
2022-11-20T18:31:45.400Z,85.70
2022-11-20T18:34:11.764Z,85.07
2022-11-20T18:36:38.098Z,84.63
2022-11-20T18:39:04.462Z,84.59
2022-11-20T18:41:30.856Z,84.90
2022-11-20T18:43:57.227Z,85.11
2022-11-20T18:46:23.579Z,84.77
2022-11-20T18:48:49.930Z,84.50
2022-11-20T18:51:16.343Z,84.71
2022-11-20T18:53:47.128Z,84.17
2022-11-20T18:56:09.001Z,82.54
2022-11-20T18:58:35.360Z,79.53
2022-11-20T19:01:01.732Z,81.76
2022-11-20T19:03:28.012Z,81.14
2022-11-20T19:05:54.397Z,81.36
2022-11-20T19:08:20.709Z,81.32
2022-11-20T19:10:47.089Z,81.47
2022-11-20T19:13:13.414Z,100.00
2022-11-20T19:15:39.793Z,100.00
2022-11-20T19:18:06.163Z,100.00
2022-11-20T19:20:32.505Z,100.00
2022-11-20T19:22:58.871Z,100.00
2022-11-20T19:25:25.250Z,100.00
2022-11-20T19:27:51.587Z,100.00
2022-11-20T19:30:17.918Z,100.00
2022-11-20T19:32:44.246Z,100.00
2022-11-20T19:35:10.627Z,100.00
2022-11-20T19:37:36.964Z,99.62
2022-11-20T19:40:03.387Z,94.62
2022-11-20T19:42:29.695Z,93.79
2022-11-20T19:44:56.035Z,93.17
2022-11-20T19:47:22.952Z,94.98
2022-11-20T19:49:48.746Z,93.37
2022-11-20T19:52:15.138Z,93.07
2022-11-20T19:54:41.476Z,93.59
2022-11-20T19:57:07.791Z,93.12
2022-11-20T19:59:34.138Z,92.40
2022-11-20T20:02:00.532Z,91.61
2022-11-20T20:04:26.833Z,91.25
2022-11-20T20:06:53.146Z,91.01
2022-11-20T20:09:19.522Z,90.85
2022-11-20T20:11:45.847Z,90.13
2022-11-20T20:14:12.183Z,90.38
2022-11-20T20:16:38.542Z,90.66
2022-11-20T20:19:04.926Z,90.41
2022-11-20T20:21:31.270Z,90.61
2022-11-20T20:23:57.620Z,90.96
2022-11-20T20:26:23.974Z,90.11
2022-11-20T20:28:50.383Z,90.09
2022-11-20T20:31:16.700Z,90.04
2022-11-20T20:33:43.081Z,89.91
2022-11-20T20:36:09.420Z,90.26
2022-11-20T20:38:35.765Z,89.47
2022-11-20T20:41:02.079Z,90.11
2022-11-20T20:43:28.462Z,89.27
2022-11-20T20:45:54.781Z,89.34
2022-11-20T20:48:21.161Z,89.96
2022-11-20T20:50:47.542Z,90.07
2022-11-20T20:53:13.878Z,89.72
2022-11-20T20:55:40.236Z,89.88
2022-11-20T20:58:06.651Z,89.25
2022-11-20T21:00:32.963Z,89.30
2022-11-20T21:02:59.307Z,89.34
2022-11-20T21:05:25.673Z,90.02
2022-11-20T21:07:52.020Z,89.91
2022-11-20T21:10:23.500Z,90.42
2022-11-20T21:12:44.775Z,90.32
2022-11-20T21:15:11.083Z,90.23
2022-11-20T21:17:37.468Z,90.46
2022-11-20T21:20:03.781Z,90.53
2022-11-20T21:22:33.916Z,90.45
2022-11-20T21:24:56.503Z,90.65
2022-11-20T21:27:22.871Z,90.88
2022-11-20T21:29:49.225Z,90.99
2022-11-20T21:32:15.575Z,90.54
2022-11-20T21:34:41.937Z,91.22
2022-11-20T21:37:08.274Z,90.29
2022-11-20T21:39:34.634Z,90.82
2022-11-20T21:42:00.969Z,90.79
2022-11-20T21:44:31.538Z,90.39
2022-11-20T21:46:53.707Z,89.67
2022-11-20T21:49:20.068Z,90.17
2022-11-20T21:51:46.407Z,90.11
2022-11-20T21:54:12.728Z,89.89
2022-11-20T21:56:39.141Z,90.23
2022-11-20T21:59:05.456Z,90.35
2022-11-20T22:01:32.096Z,89.77
2022-11-20T22:03:58.187Z,90.20
2022-11-20T22:06:24.565Z,90.35
2022-11-20T22:08:50.918Z,90.42
2022-11-20T22:11:17.261Z,90.42
2022-11-20T22:13:43.579Z,90.40
2022-11-20T22:16:09.924Z,89.98
2022-11-20T22:18:36.291Z,90.39
2022-11-20T22:21:02.673Z,89.97
2022-11-20T22:23:28.991Z,90.42
2022-11-20T22:25:55.373Z,90.20
2022-11-20T22:28:21.767Z,90.59
2022-11-20T22:30:48.139Z,90.62
2022-11-20T22:33:14.518Z,90.32
2022-11-20T22:35:40.901Z,90.59
2022-11-20T22:38:07.255Z,90.41
2022-11-20T22:40:33.648Z,90.66
2022-11-20T22:42:59.963Z,90.42
2022-11-20T22:45:26.339Z,90.80
2022-11-20T22:47:52.656Z,91.10
2022-11-20T22:50:18.995Z,90.60
2022-11-20T22:52:45.356Z,90.33
2022-11-20T22:55:16.096Z,90.22
2022-11-20T22:57:38.027Z,90.64
2022-11-20T23:00:04.363Z,90.80
2022-11-20T23:02:30.682Z,90.17
2022-11-20T23:04:57.095Z,90.74
2022-11-20T23:07:23.494Z,90.76
2022-11-20T23:09:49.757Z,90.58
2022-11-20T23:12:16.115Z,90.59
2022-11-20T23:14:42.450Z,90.71
2022-11-20T23:17:08.809Z,90.80
2022-11-20T23:19:35.194Z,90.57
2022-11-20T23:22:01.510Z,90.73
2022-11-20T23:24:28.115Z,90.66
2022-11-20T23:26:54.204Z,91.01
2022-11-20T23:29:20.629Z,90.56
2022-11-20T23:31:46.979Z,90.88
2022-11-20T23:34:13.313Z,90.54
2022-11-20T23:36:39.632Z,90.98
2022-11-20T23:39:05.975Z,90.84
2022-11-20T23:41:32.334Z,90.92
2022-11-20T23:43:58.744Z,90.91
2022-11-20T23:46:25.054Z,91.15
2022-11-20T23:48:51.399Z,90.88
2022-11-20T23:51:17.738Z,91.09
2022-11-20T23:53:44.087Z,90.46
